ADDS METAR Data INFO
IDs: Format: Raw Decoded Include TAF

Data at: 1352 UTC 18 Jan 2018

KPWG 181256Z AUTO 00000KT 10SM CLR M12/M14 A3054 RMK AO2 SLP361 T11171139 FZRANO
KPWG 181156Z AUTO 00000KT 10SM CLR M12/M16 A3055 RMK AO2 SLP364 T11221156 11089 21122 56006 FZRANO
KPWG 181056Z AUTO 26004KT 10SM CLR M11/M14 A3055 RMK AO2 SLP365 T11111144 FZRANO
KPWG 180956Z AUTO 26004KT 10SM CLR M11/M14 A3057 RMK AO2 SLP369 T11061144 FZRANO
KPWG 180856Z AUTO 00000KT 10SM CLR M09/M13 A3057 RMK AO2 SLP370 T10941133 56009 FZRANO
KPWG 180756Z AUTO 20003KT 10SM CLR M10/M13 A3057 RMK AO2 SLP372 T11001133 FZRANO
KPWG 180656Z AUTO 18004KT 10SM CLR M09/M13 A3058 RMK AO2 SLP374 T10891133 FZRANO
KPWG 180556Z AUTO 17004KT 10SM CLR M10/M14 A3060 RMK AO2 SLP380 T11001139 11022 21111 400171139 58012 FZRANO
KPWG 180456Z AUTO 00000KT 10SM CLR M10/M15 A3062 RMK AO2 SLP386 T11001150 FZRANO
KPWG 180356Z AUTO 21003KT 10SM CLR M07/M13 A3063 RMK AO2 SLP390 T10671133 FZRANO
KPWG 180256Z AUTO 00000KT 10SM CLR M07/M13 A3063 RMK AO2 SLP390 T10671128 53000 FZRANO
KPWG 180156Z AUTO 00000KT 10SM CLR M06/M13 A3063 RMK AO2 SLP392 T10561128 FZRANO
KPWG 180056Z AUTO 03005KT 10SM CLR M03/M12 A3063 RMK AO2 SLP391 T10331122 FZRANO
KPWG 172356Z AUTO 01003KT 10SM CLR M02/M12 A3063 RMK AO2 SLP391 T10221122 10017 21022 56003 FZRANO
KPWG 172256Z AUTO 03005KT 10SM CLR 01/M13 A3063 RMK AO2 SLP392 T00061133 FZRANO
KPWG 172156Z AUTO 07008KT 10SM CLR 02/M13 A3063 RMK AO2 SLP390 T00171128 FZRANO TSNO
KPWG 172056Z AUTO VRB04KT 10SM CLR 01/M14 A3064 RMK AO2 SLP394 T00061139 56039 FZRANO
KPWG 171956Z AUTO 05007KT 10SM CLR 01/M14 A3066 RMK AO2 SLP403 T00061139 FZRANO
KPWG 171856Z AUTO 05006KT 10SM CLR M01/M13 A3070 RMK AO2 SLP415 T10061128 FZRANO
KPWG 171756Z AUTO VRB05KT 10SM CLR M02/M13 A3076 RMK AO2 SLP432 T10171128 11017 21139 58011 FZRANO
KPWG 171656Z AUTO 01005KT 10SM CLR M03/M14 A3079 RMK AO2 SLP444 T10331139 FZRANO
KPWG 171556Z AUTO 04007KT 10SM CLR M06/M13 A3080 RMK AO2 SLP450 T10561133 FZRANO
KPWG 171456Z AUTO 34003KT 10SM CLR M07/M13 A3079 RMK AO2 SLP444 T10721133 53006 FZRANO
KPWG 171356Z AUTO 33005KT 10SM CLR M12/M15 A3077 RMK AO2 SLP440 T11221150 FZRANO
KPWG 171256Z AUTO 31005KT 10SM CLR M13/M17 A3076 RMK AO2 SLP438 T11331167 FZRANO
KPWG 171156Z AUTO 30004KT 10SM CLR M13/M16 A3077 RMK AO2 SLP438 T11331161 11106 21133 53006 FZRANO
KPWG 171056Z AUTO 30005KT 10SM CLR M12/M16 A3076 RMK AO2 SLP435 T11221156 FZRANO
KPWG 170956Z AUTO 31006KT 10SM CLR M12/M16 A3076 RMK AO2 SLP434 T11221161 FZRANO
KPWG 170856Z AUTO 33005KT 10SM CLR M12/M16 A3075 RMK AO2 SLP433 T11221161 55002 FZRANO
KPWG 170756Z AUTO 32006KT 10SM CLR M12/M16 A3075 RMK AO2 SLP431 T11171156 FZRANO
KPWG 170656Z AUTO 34005KT 10SM CLR M12/M16 A3075 RMK AO2 SLP431 T11171161 FZRANO
KPWG 170556Z AUTO 32006KT 10SM CLR M11/M16 A3076 RMK AO2 SLP434 T11061156 11039 21106 410061106 50005 FZRANO
KPWG 170456Z AUTO 32006KT 10SM CLR M09/M15 A3076 RMK AO2 SLP433 T10941150 FZRANO
KPWG 170356Z AUTO 33006KT 10SM CLR M09/M16 A3075 RMK AO2 SLP431 T10891156 FZRANO
KPWG 170256Z AUTO 32003KT 10SM CLR M07/M15 A3074 RMK AO2 SLP427 T10721150 51010 FZRANO
KPWG 170156Z AUTO 35003KT 10SM CLR M06/M14 A3073 RMK AO2 SLP426 T10561139 FZRANO